sensor_id;sensor_type;location;lat;lon;timestamp;pressure;altitude;pressure_sealevel;temperature;humidity
69766;BME280;57039;48.014;21.384;2022-08-18T00:10:00;100199.13;;;23.54;82.62
69766;BME280;57039;48.014;21.384;2022-08-18T00:20:06;100205.00;;;23.57;82.48
69766;BME280;57039;48.014;21.384;2022-08-18T00:30:13;100205.84;;;23.50;82.43
69766;BME280;57039;48.014;21.384;2022-08-18T00:40:22;100205.53;;;23.44;82.11
69766;BME280;57039;48.014;21.384;2022-08-18T00:50:32;100213.47;;;23.30;83.13
69766;BME280;57039;48.014;21.384;2022-08-18T01:00:37;100223.47;;;22.88;85.22
69766;BME280;57039;48.014;21.384;2022-08-18T01:10:41;100213.63;;;22.81;84.89
69766;BME280;57039;48.014;21.384;2022-08-18T01:20:58;100210.97;;;22.72;85.35
69766;BME280;57039;48.014;21.384;2022-08-18T01:31:31;100218.72;;;22.51;86.69
69766;BME280;57039;48.014;21.384;2022-08-18T01:41:36;100184.44;;;22.46;86.68
69766;BME280;57039;48.014;21.384;2022-08-18T01:51:39;100180.63;;;22.32;87.85
69766;BME280;57039;48.014;21.384;2022-08-18T02:01:45;100184.47;;;22.30;87.68
69766;BME280;57039;48.014;21.384;2022-08-18T02:11:55;100184.13;;;22.08;88.54
69766;BME280;57039;48.014;21.384;2022-08-18T02:21:58;100176.28;;;21.99;88.25
69766;BME280;57039;48.014;21.384;2022-08-18T02:32:02;100178.78;;;22.00;87.65
69766;BME280;57039;48.014;21.384;2022-08-18T02:42:06;100179.75;;;21.83;88.39
69766;BME280;57039;48.014;21.384;2022-08-18T02:52:09;100188.09;;;21.63;89.06
69766;BME280;57039;48.014;21.384;2022-08-18T03:02:12;100185.69;;;21.36;90.80
69766;BME280;57039;48.014;21.384;2022-08-18T03:12:16;100188.25;;;21.70;89.04
69766;BME280;57039;48.014;21.384;2022-08-18T03:22:19;100180.81;;;21.31;89.47
69766;BME280;57039;48.014;21.384;2022-08-18T03:32:30;100217.09;;;21.16;91.16
69766;BME280;57039;48.014;21.384;2022-08-18T03:42:33;100221.38;;;21.01;91.39
69766;BME280;57039;48.014;21.384;2022-08-18T03:52:36;100224.00;;;21.35;89.29
69766;BME280;57039;48.014;21.384;2022-08-18T04:02:43;100250.66;;;20.92;91.41
69766;BME280;57039;48.014;21.384;2022-08-18T04:12:46;100239.78;;;21.20;90.53
69766;BME280;57039;48.014;21.384;2022-08-18T04:22:50;100261.16;;;21.54;89.19
69766;BME280;57039;48.014;21.384;2022-08-18T04:32:53;100278.47;;;21.42;89.82
69766;BME280;57039;48.014;21.384;2022-08-18T04:42:56;100279.94;;;21.95;87.87
69766;BME280;57039;48.014;21.384;2022-08-18T04:52:59;100261.34;;;22.44;85.34
69766;BME280;57039;48.014;21.384;2022-08-18T05:03:32;100264.31;;;22.66;83.93
69766;BME280;57039;48.014;21.384;2022-08-18T05:13:37;100305.59;;;23.04;82.44
69766;BME280;57039;48.014;21.384;2022-08-18T05:23:46;100291.03;;;23.54;80.65
69766;BME280;57039;48.014;21.384;2022-08-18T05:33:51;100293.03;;;23.60;79.09
69766;BME280;57039;48.014;21.384;2022-08-18T05:43:55;100295.94;;;24.13;77.10
69766;BME280;57039;48.014;21.384;2022-08-18T05:54:01;100295.03;;;24.67;74.85
69766;BME280;57039;48.014;21.384;2022-08-18T06:04:33;100295.53;;;25.00;73.29
69766;BME280;57039;48.014;21.384;2022-08-18T06:14:41;100291.69;;;25.62;70.87
69766;BME280;57039;48.014;21.384;2022-08-18T06:25:01;100287.19;;;25.69;70.18
69766;BME280;57039;48.014;21.384;2022-08-18T06:35:10;100293.69;;;25.74;69.42
69766;BME280;57039;48.014;21.384;2022-08-18T06:45:17;100304.34;;;26.40;66.79
69766;BME280;57039;48.014;21.384;2022-08-18T06:55:36;100307.63;;;27.14;63.54
69766;BME280;57039;48.014;21.384;2022-08-18T07:16:40;100312.88;;;28.18;59.42
69766;BME280;57039;48.014;21.384;2022-08-18T07:27:02;100311.09;;;28.65;57.10
69766;BME280;57039;48.014;21.384;2022-08-18T07:47:19;100306.56;;;29.57;53.51
69766;BME280;57039;48.014;21.384;2022-08-18T08:08:01;100309.84;;;30.99;48.43
69766;BME280;57039;48.014;21.384;2022-08-18T08:39:04;100289.53;;;31.64;44.96
69766;BME280;57039;48.014;21.384;2022-08-18T08:59:24;100277.22;;;32.10;44.17
69766;BME280;57039;48.014;21.384;2022-08-18T09:10:16;100281.22;;;32.61;42.98
69766;BME280;57039;48.014;21.384;2022-08-18T09:41:16;100291.19;;;33.95;38.74
69766;BME280;57039;48.014;21.384;2022-08-18T09:51:36;100275.34;;;34.37;39.38
69766;BME280;57039;48.014;21.384;2022-08-18T10:01:43;100264.69;;;34.52;37.05
69766;BME280;57039;48.014;21.384;2022-08-18T10:22:45;100265.38;;;35.37;33.49
69766;BME280;57039;48.014;21.384;2022-08-18T10:32:49;100276.88;;;35.01;34.18
69766;BME280;57039;48.014;21.384;2022-08-18T10:54:04;100268.78;;;36.26;33.38
69766;BME280;57039;48.014;21.384;2022-08-18T11:25:33;100249.41;;;35.73;29.16
69766;BME280;57039;48.014;21.384;2022-08-18T11:35:49;100232.78;;;36.71;27.93
69766;BME280;57039;48.014;21.384;2022-08-18T11:45:54;100223.50;;;35.76;30.88
69766;BME280;57039;48.014;21.384;2022-08-18T12:06:32;100208.72;;;37.31;28.61
69766;BME280;57039;48.014;21.384;2022-08-18T12:16:40;100184.94;;;36.79;29.93
69766;BME280;57039;48.014;21.384;2022-08-18T12:26:52;100176.97;;;36.72;30.41
69766;BME280;57039;48.014;21.384;2022-08-18T12:36:57;100159.22;;;36.27;30.82
69766;BME280;57039;48.014;21.384;2022-08-18T12:47:09;100153.53;;;36.02;31.32
69766;BME280;57039;48.014;21.384;2022-08-18T12:57:20;100126.56;;;36.05;32.17
69766;BME280;57039;48.014;21.384;2022-08-18T13:07:45;100126.41;;;36.27;31.50
69766;BME280;57039;48.014;21.384;2022-08-18T13:17:49;100117.88;;;36.19;31.26
69766;BME280;57039;48.014;21.384;2022-08-18T13:27:56;100112.50;;;35.92;32.35
69766;BME280;57039;48.014;21.384;2022-08-18T13:38:00;100113.88;;;35.35;32.81
69766;BME280;57039;48.014;21.384;2022-08-18T13:48:20;100096.34;;;35.26;33.25
69766;BME280;57039;48.014;21.384;2022-08-18T13:58:26;100087.41;;;35.35;32.64
69766;BME280;57039;48.014;21.384;2022-08-18T14:08:30;100096.31;;;34.98;34.07
69766;BME280;57039;48.014;21.384;2022-08-18T14:18:34;100093.34;;;34.78;32.58
69766;BME280;57039;48.014;21.384;2022-08-18T14:28:37;100121.03;;;34.31;33.94
69766;BME280;57039;48.014;21.384;2022-08-18T14:38:43;100127.66;;;34.01;34.33
69766;BME280;57039;48.014;21.384;2022-08-18T14:48:46;100131.94;;;33.80;34.46
69766;BME280;57039;48.014;21.384;2022-08-18T14:58:50;100141.38;;;33.73;34.93
69766;BME280;57039;48.014;21.384;2022-08-18T15:08:54;100137.16;;;33.36;34.72
69766;BME280;57039;48.014;21.384;2022-08-18T15:18:59;100150.25;;;33.11;36.27
69766;BME280;57039;48.014;21.384;2022-08-18T15:29:04;100161.75;;;32.89;35.35
69766;BME280;57039;48.014;21.384;2022-08-18T15:39:12;100162.50;;;32.85;35.67
69766;BME280;57039;48.014;21.384;2022-08-18T15:49:15;100167.56;;;32.81;36.78
69766;BME280;57039;48.014;21.384;2022-08-18T15:59:19;100158.53;;;32.64;35.42
69766;BME280;57039;48.014;21.384;2022-08-18T16:09:28;100150.00;;;32.48;36.28
69766;BME280;57039;48.014;21.384;2022-08-18T16:19:32;100104.56;;;32.20;35.76
69766;BME280;57039;48.014;21.384;2022-08-18T16:29:35;100110.09;;;32.14;36.77
69766;BME280;57039;48.014;21.384;2022-08-18T16:39:39;100098.13;;;31.79;37.28
69766;BME280;57039;48.014;21.384;2022-08-18T16:49:44;100128.47;;;31.88;38.42
69766;BME280;57039;48.014;21.384;2022-08-18T16:59:53;100124.87;;;31.64;39.73
69766;BME280;57039;48.014;21.384;2022-08-18T17:10:14;100126.59;;;31.47;41.23
69766;BME280;57039;48.014;21.384;2022-08-18T17:20:17;100113.62;;;31.19;42.55
69766;BME280;57039;48.014;21.384;2022-08-18T17:30:29;100107.88;;;30.78;45.56
69766;BME280;57039;48.014;21.384;2022-08-18T17:40:44;100113.34;;;30.35;48.66
69766;BME280;57039;48.014;21.384;2022-08-18T17:51:00;100123.34;;;29.84;50.26
69766;BME280;57039;48.014;21.384;2022-08-18T18:01:24;100124.19;;;29.53;50.78
69766;BME280;57039;48.014;21.384;2022-08-18T18:11:34;100134.69;;;28.78;52.31
69766;BME280;57039;48.014;21.384;2022-08-18T18:21:39;100160.13;;;28.17;53.11
69766;BME280;57039;48.014;21.384;2022-08-18T18:42:42;100174.66;;;27.89;55.41
69766;BME280;57039;48.014;21.384;2022-08-18T19:13:14;100191.66;;;27.22;60.29
69766;BME280;57039;48.014;21.384;2022-08-18T19:23:40;100188.16;;;27.28;59.44
69766;BME280;57039;48.014;21.384;2022-08-18T19:33:52;100171.88;;;27.01;60.17
69766;BME280;57039;48.014;21.384;2022-08-18T19:44:05;100144.88;;;26.95;60.43
69766;BME280;57039;48.014;21.384;2022-08-18T20:15:21;100133.13;;;27.02;52.73
69766;BME280;57039;48.014;21.384;2022-08-18T20:25:42;100143.97;;;26.46;55.82
69766;BME280;57039;48.014;21.384;2022-08-18T20:56:12;100107.31;;;26.10;55.04
69766;BME280;57039;48.014;21.384;2022-08-18T21:06:38;100119.28;;;26.08;55.63
69766;BME280;57039;48.014;21.384;2022-08-18T21:16:44;100131.22;;;25.99;55.07
69766;BME280;57039;48.014;21.384;2022-08-18T21:26:47;100140.09;;;25.56;58.08
69766;BME280;57039;48.014;21.384;2022-08-18T21:36:52;100153.03;;;24.80;61.11
69766;BME280;57039;48.014;21.384;2022-08-18T21:57:28;100142.59;;;25.06;60.63
69766;BME280;57039;48.014;21.384;2022-08-18T22:07:32;100120.25;;;24.70;62.46
69766;BME280;57039;48.014;21.384;2022-08-18T22:27:56;100135.06;;;24.51;63.34
69766;BME280;57039;48.014;21.384;2022-08-18T22:38:00;100138.13;;;24.48;63.13
69766;BME280;57039;48.014;21.384;2022-08-18T22:48:04;100142.50;;;24.41;63.51
69766;BME280;57039;48.014;21.384;2022-08-18T22:58:07;100156.13;;;24.01;66.05
69766;BME280;57039;48.014;21.384;2022-08-18T23:08:12;100149.31;;;24.13;65.62
69766;BME280;57039;48.014;21.384;2022-08-18T23:18:18;100161.12;;;24.04;67.32
69766;BME280;57039;48.014;21.384;2022-08-18T23:28:22;100162.34;;;24.17;65.96
69766;BME280;57039;48.014;21.384;2022-08-18T23:38:26;100174.00;;;24.09;65.62
69766;BME280;57039;48.014;21.384;2022-08-18T23:48:33;100177.09;;;23.98;66.24
69766;BME280;57039;48.014;21.384;2022-08-18T23:58:36;100134.91;;;23.68;67.13
